createdAt,value
2019-01-23T00:01:59.044Z,62.67
2019-01-23T00:07:05.325Z,58.73
2019-01-23T00:12:11.565Z,54.47
2019-01-23T00:17:18.751Z,56.97
2019-01-23T00:22:24.835Z,58.20
2019-01-23T00:27:30.921Z,51.03
2019-01-23T00:32:36.992Z,47.67
2019-01-23T00:37:43.265Z,52.83
2019-01-23T00:42:49.353Z,54.07
2019-01-23T00:47:55.450Z,64.40
2019-01-23T00:53:01.617Z,52.77
2019-01-23T00:58:07.768Z,51.43
2019-01-23T01:03:14.068Z,50.77
2019-01-23T01:08:20.145Z,50.10
2019-01-23T01:13:26.238Z,51.47
2019-01-23T01:18:32.378Z,49.90
2019-01-23T01:23:38.572Z,53.47
2019-01-23T01:28:44.729Z,53.83
2019-01-23T01:33:50.961Z,48.97
2019-01-23T01:38:57.503Z,56.20
2019-01-23T01:44:03.696Z,47.90
2019-01-23T01:49:09.721Z,49.00
2019-01-23T01:54:15.733Z,52.17
2019-01-23T01:59:21.904Z,54.50
2019-01-23T04:08:02.665Z,55.13
2019-01-23T04:13:08.602Z,50.50
2019-01-23T04:18:14.601Z,54.23
2019-01-23T04:23:20.634Z,56.03
2019-01-23T04:28:26.637Z,54.27
2019-01-23T04:33:32.788Z,61.83
2019-01-23T04:38:38.859Z,52.03
2019-01-23T04:43:46.049Z,51.57
2019-01-23T04:48:52.143Z,56.03
2019-01-23T04:53:58.296Z,53.63
2019-01-23T04:59:04.416Z,56.87
2019-01-23T05:04:10.466Z,57.73
2019-01-23T05:09:16.651Z,53.67
2019-01-23T05:14:22.765Z,55.83
2019-01-23T05:19:28.894Z,53.73
2019-01-23T05:24:35.081Z,52.67
2019-01-23T05:29:42.787Z,62.63
2019-01-23T05:34:48.835Z,57.97
2019-01-23T05:39:55.857Z,65.33
2019-01-23T05:45:01.980Z,66.13
2019-01-23T05:50:10.287Z,66.50
2019-01-23T05:55:16.439Z,65.60
2019-01-23T06:00:23.398Z,65.30
2019-01-23T06:05:29.611Z,69.37
2019-01-23T06:10:35.587Z,70.20
2019-01-23T06:15:41.771Z,71.20
2019-01-23T06:20:47.836Z,67.10
2019-01-23T06:25:53.926Z,68.43
2019-01-23T06:30:59.989Z,67.80
2019-01-23T06:36:06.067Z,70.13
2019-01-23T06:41:12.131Z,68.70
2019-01-23T06:46:18.318Z,69.50
2019-01-23T06:51:24.378Z,62.73
2019-01-23T06:56:30.457Z,67.63
2019-01-23T07:01:36.474Z,68.60
2019-01-23T07:06:42.400Z,79.73
2019-01-23T07:11:48.392Z,83.27
2019-01-23T07:16:54.593Z,88.30
2019-01-23T07:22:00.544Z,87.27
2019-01-23T07:27:06.868Z,76.53
2019-01-23T07:32:13.119Z,82.13
2019-01-23T07:37:19.041Z,82.10
2019-01-23T07:42:25.031Z,77.17
2019-01-23T07:47:30.995Z,76.43
2019-01-23T07:52:37.072Z,84.13
2019-01-23T07:57:43.133Z,92.90
2019-01-23T08:02:49.566Z,102.70
2019-01-23T08:07:55.714Z,87.50
2019-01-23T08:13:01.798Z,97.90
2019-01-23T08:18:08.358Z,94.03
2019-01-23T08:23:14.617Z,88.20
2019-01-23T08:28:20.458Z,83.20
2019-01-23T08:33:26.492Z,82.47
2019-01-23T08:38:32.864Z,65.13
2019-01-23T08:43:38.917Z,76.73
2019-01-23T08:48:45.039Z,69.50
2019-01-23T08:53:51.017Z,69.07
2019-01-23T08:58:57.084Z,68.53
2019-01-23T09:04:03.052Z,64.83
2019-01-23T09:09:09.605Z,63.47
2019-01-23T09:14:15.569Z,81.83
2019-01-23T09:19:21.675Z,88.57
2019-01-23T09:24:27.564Z,119.87
2019-01-23T09:29:33.613Z,147.20
2019-01-23T09:35:04.973Z,188.70
2019-01-23T09:40:19.267Z,61.90
2019-01-23T09:46:10.638Z,101.90
2019-01-23T09:52:21.109Z,93.40
2019-01-23T09:57:27.167Z,76.97
2019-01-23T10:02:33.302Z,46.80
2019-01-23T10:07:39.499Z,73.73
2019-01-23T10:12:45.437Z,98.83
2019-01-23T10:17:51.621Z,42.87
2019-01-23T10:22:57.640Z,54.33
2019-01-23T10:28:03.683Z,108.27
2019-01-23T10:33:09.863Z,61.83
2019-01-23T10:38:16.051Z,57.73
2019-01-23T10:43:22.018Z,46.83
2019-01-23T10:48:27.975Z,45.97
2019-01-23T10:53:34.010Z,42.97
2019-01-23T10:58:40.133Z,32.17
2019-01-23T11:03:46.205Z,36.70
2019-01-23T11:08:52.276Z,42.80
2019-01-23T11:13:58.299Z,35.47
2019-01-23T11:19:04.455Z,44.50
2019-01-23T11:24:10.615Z,35.60
2019-01-23T11:29:17.217Z,33.27
2019-01-23T11:34:23.265Z,33.03
2019-01-23T11:39:29.392Z,35.80
2019-01-23T11:44:35.515Z,35.60
2019-01-23T11:49:41.572Z,31.87
2019-01-23T11:54:47.651Z,33.67
2019-01-23T11:59:53.687Z,32.40
2019-01-23T12:04:59.913Z,27.70
2019-01-23T12:10:07.059Z,32.10
2019-01-23T12:15:14.634Z,30.77
2019-01-23T12:20:21.643Z,35.17
2019-01-23T12:25:27.615Z,33.60
2019-01-23T12:30:34.827Z,35.37
2019-01-23T12:35:40.969Z,42.83
2019-01-23T12:40:47.061Z,43.63
2019-01-23T12:45:53.043Z,43.00
2019-01-23T12:50:59.301Z,41.17
2019-01-23T12:56:05.572Z,44.60
2019-01-23T13:01:11.571Z,41.83
2019-01-23T13:06:17.720Z,39.43
2019-01-23T13:11:23.900Z,35.20
2019-01-23T13:16:29.974Z,37.47
2019-01-23T13:21:36.072Z,41.23
2019-01-23T13:26:42.109Z,42.30
2019-01-23T13:31:49.274Z,43.97
2019-01-23T13:36:55.567Z,43.60
2019-01-23T13:42:01.790Z,46.13
2019-01-23T13:47:07.944Z,43.53
2019-01-23T13:52:14.022Z,46.97
2019-01-23T13:57:20.019Z,49.13
2019-01-23T14:02:26.011Z,45.67
2019-01-23T14:07:32.274Z,46.20
2019-01-23T14:12:38.327Z,50.60
2019-01-23T14:17:44.419Z,48.17
2019-01-23T14:22:50.380Z,72.87
2019-01-23T14:27:56.408Z,140.17
2019-01-23T14:33:02.514Z,129.83
2019-01-23T14:38:27.272Z,137.73
2019-01-23T14:43:33.202Z,145.10
2019-01-23T14:48:39.190Z,151.83
2019-01-23T14:53:45.261Z,151.20
2019-01-23T14:58:51.243Z,156.57
2019-01-23T15:03:57.307Z,172.23
2019-01-23T15:09:04.971Z,174.23
2019-01-23T15:14:12.432Z,185.20
2019-01-23T15:19:18.516Z,207.37
2019-01-23T15:24:24.671Z,196.37
2019-01-23T15:29:31.692Z,200.10
2019-01-23T15:34:38.723Z,203.77
2019-01-23T15:39:44.871Z,200.27
2019-01-23T15:44:50.821Z,209.23
2019-01-23T15:49:56.886Z,190.90
2019-01-23T15:55:03.073Z,192.90
2019-01-23T16:00:15.788Z,218.67
2019-01-23T16:05:21.861Z,198.53
2019-01-23T16:10:29.282Z,195.60
2019-01-23T16:15:35.575Z,197.77
2019-01-23T16:20:41.723Z,191.17
2019-01-23T16:25:47.807Z,187.93
2019-01-23T16:30:53.794Z,188.83
2019-01-23T16:36:00.005Z,191.10
2019-01-23T16:41:06.023Z,186.67
2019-01-23T16:46:12.151Z,204.37
2019-01-23T16:51:18.341Z,192.50
2019-01-23T16:56:24.483Z,200.20
2019-01-23T17:01:30.429Z,183.40
2019-01-23T17:06:36.633Z,205.60
2019-01-23T17:11:42.773Z,202.80
2019-01-23T17:16:48.972Z,186.83
2019-01-23T17:21:55.070Z,203.20
2019-01-23T17:27:01.263Z,179.47
2019-01-23T17:32:07.643Z,171.73
2019-01-23T17:37:13.653Z,183.73
2019-01-23T17:42:19.659Z,190.97
2019-01-23T17:47:25.939Z,181.17
2019-01-23T17:52:31.988Z,172.30
2019-01-23T17:57:38.056Z,179.77
2019-01-23T18:02:44.267Z,164.90
2019-01-23T18:07:50.328Z,165.90
2019-01-23T18:12:56.432Z,144.37
2019-01-23T18:18:02.771Z,140.53
2019-01-23T18:23:08.895Z,151.97
2019-01-23T18:28:15.929Z,146.53
2019-01-23T18:33:30.328Z,143.60
2019-01-23T18:38:48.090Z,131.63
2019-01-23T18:44:21.980Z,134.13
2019-01-23T18:49:39.790Z,134.60
2019-01-23T18:54:46.358Z,125.87
2019-01-23T18:59:58.952Z,133.00
2019-01-23T19:05:00.262Z,120.40
2019-01-23T19:10:07.876Z,128.23
2019-01-23T19:15:15.359Z,122.90
2019-01-23T19:20:21.953Z,125.07
2019-01-23T19:25:28.017Z,122.60
2019-01-23T19:30:34.074Z,112.20
2019-01-23T19:35:40.042Z,125.30
2019-01-23T19:40:45.943Z,120.53
2019-01-23T19:45:51.908Z,113.63
2019-01-23T19:50:57.988Z,123.73
2019-01-23T19:56:03.946Z,122.37
2019-01-23T20:01:10.057Z,120.43
2019-01-23T20:06:16.294Z,116.20
2019-01-23T20:11:22.961Z,112.13
2019-01-23T20:16:29.992Z,108.80
2019-01-23T20:21:36.053Z,117.53
2019-01-23T20:26:42.171Z,113.50
2019-01-23T20:31:48.311Z,113.93
2019-01-23T20:36:54.378Z,116.23
2019-01-23T20:42:00.444Z,115.47
2019-01-23T20:47:06.544Z,115.47
2019-01-23T20:52:12.503Z,121.37
2019-01-23T20:57:18.692Z,123.63
2019-01-23T21:02:24.766Z,137.60
2019-01-23T21:07:31.032Z,122.53
2019-01-23T21:12:37.190Z,115.93
2019-01-23T21:17:43.324Z,135.93
2019-01-23T21:22:49.552Z,128.00
2019-01-23T21:27:55.834Z,105.60
2019-01-23T21:33:02.039Z,109.87
2019-01-23T21:38:08.118Z,120.23
2019-01-23T21:43:14.328Z,126.87
2019-01-23T21:48:20.519Z,123.27
2019-01-23T21:53:26.761Z,124.87
2019-01-23T21:58:32.826Z,111.27
2019-01-23T22:03:38.970Z,103.97
2019-01-23T22:08:45.148Z,111.97
2019-01-23T22:13:51.248Z,119.67
2019-01-23T22:18:58.204Z,119.70
2019-01-23T22:24:04.178Z,120.53
2019-01-23T22:29:10.287Z,117.77
2019-01-23T22:34:16.251Z,130.27
2019-01-23T22:39:22.415Z,122.33
2019-01-23T22:44:28.499Z,134.57
2019-01-23T22:49:34.572Z,129.67
2019-01-23T22:54:40.546Z,206.50
2019-01-23T22:59:46.604Z,162.63
2019-01-23T23:04:52.775Z,139.03
2019-01-23T23:09:58.853Z,134.33
2019-01-23T23:15:05.266Z,132.23
2019-01-23T23:20:11.406Z,154.53
2019-01-23T23:25:17.591Z,137.70
2019-01-23T23:30:26.076Z,136.97
2019-01-23T23:35:32.103Z,139.00
2019-01-23T23:40:38.094Z,140.70
2019-01-23T23:45:44.067Z,142.87
2019-01-23T23:50:50.200Z,131.10
2019-01-23T23:55:56.283Z,123.37
